Bethel, Delaware
Current Conditions -  °F | °C
As of 7:54 AM on Sunday 23 Nov 2014 (Local Time) from KGED Reporting Station
Clear Clear  
Wind Chill: 38°   Ceiling: Unl
Heat Index: 42°   Visibility: 10mi
Dew Point: 30°   Wind: 6mph
Humidity: 62%   Direction: 200°SSW
Pressure: 30.27"   Gusts: NA
Location:  38.57°N, 75.62°W
Report Text: KGED 231254Z AUTO 20005KT 10SM CLR 06/M01 A3027 RMK AO2 SLP251 T00561011
Loading
Personal Weather Stations






























Interactive Weather Map New forecast layout! Learn more

10-Day Weather Forecast

Advertisements
Track Severe Weather on mobile